Terminal Aerodrome Forecast
Issued by NWS Tampa Bay Area, FL

Home | Current Version | Previous Version | Text Only | Print | Product List | Glossary On
Versions: 1 2 3 4 5 6 7 8 9 10 11 12
000
FTUS42 KTBW 231100
TAFFMY
TAF
KFMY 231128Z 2312/2412 10003KT P6SM SKC
     FM231500 05006KT P6SM FEW030 SCT250
     FM232100 34007KT P6SM VCTS SCT050CB SCT120 BKN250
     FM240200 10003KT P6SM FEW035 BKN250=

USA.gov is the U.S. government's official web portal to all federal, state and local government web resources and services.